createdAt,value
2023-05-07T00:01:26.146Z,99840.47
2023-05-07T00:03:53.563Z,99839.50
2023-05-07T00:06:21.080Z,99835.63
2023-05-07T00:08:48.431Z,99844.47
2023-05-07T00:11:16.185Z,99841.69
2023-05-07T00:13:43.540Z,99836.66
2023-05-07T00:16:10.675Z,99833.09
2023-05-07T00:18:37.857Z,99839.31
2023-05-07T00:21:11.024Z,99834.13
2023-05-07T00:23:39.416Z,99842.03
2023-05-07T00:26:06.808Z,99832.50
2023-05-07T00:28:35.384Z,99835.41
2023-05-07T00:31:02.990Z,99831.91
2023-05-07T00:33:32.426Z,99840.94
2023-05-07T00:35:59.864Z,99838.22
2023-05-07T00:38:27.336Z,99834.78
2023-05-07T00:40:54.787Z,99836.53
2023-05-07T00:43:22.260Z,99833.81
2023-05-07T00:45:51.788Z,99841.25
2023-05-07T00:48:20.361Z,99845.66
2023-05-07T00:50:49.456Z,99844.97
2023-05-07T00:53:17.941Z,99845.00
2023-05-07T00:55:45.182Z,99845.34
2023-05-07T00:58:12.741Z,99852.34
2023-05-07T01:00:40.073Z,99852.59
2023-05-07T01:03:07.559Z,99855.31
2023-05-07T01:05:36.843Z,99851.13
2023-05-07T01:08:06.663Z,99854.59
2023-05-07T01:10:34.145Z,99855.66
2023-05-07T01:13:03.636Z,99854.75
2023-05-07T01:15:30.943Z,99854.84
2023-05-07T01:17:58.743Z,99855.38
2023-05-07T01:20:26.471Z,99864.31
2023-05-07T01:22:55.751Z,99864.41
2023-05-07T01:25:23.957Z,99867.72
2023-05-07T01:27:57.612Z,99866.13
2023-05-07T01:30:24.746Z,99867.22
2023-05-07T01:33:03.919Z,99867.28
2023-05-07T01:35:37.487Z,99861.78
2023-05-07T01:38:07.466Z,99866.13
2023-05-07T01:40:35.917Z,99863.09
2023-05-07T01:43:07.180Z,99869.31
2023-05-07T01:45:35.816Z,99868.41
2023-05-07T01:48:04.465Z,99869.41
2023-05-07T01:50:35.054Z,99873.91
2023-05-07T01:53:03.837Z,99872.78
2023-05-07T01:55:32.406Z,99871.75
2023-05-07T01:57:59.981Z,99878.66
2023-05-07T02:00:27.249Z,99873.50
2023-05-07T02:02:54.686Z,99871.00
2023-05-07T02:05:22.178Z,99868.13
2023-05-07T02:07:49.538Z,99861.59
2023-05-07T02:10:17.949Z,99872.44
2023-05-07T02:12:47.501Z,99854.00
2023-05-07T02:15:16.041Z,99854.75
2023-05-07T02:18:04.420Z,99864.47
2023-05-07T02:20:31.909Z,99859.19
2023-05-07T02:22:59.687Z,99869.72
2023-05-07T02:25:26.896Z,99859.31
2023-05-07T02:27:54.198Z,99862.00
2023-05-07T02:30:22.661Z,99857.63
2023-05-07T02:32:50.232Z,99857.63
2023-05-07T02:35:17.883Z,99864.28
2023-05-07T02:37:45.181Z,99865.94
2023-05-07T02:40:13.969Z,99870.84
2023-05-07T02:42:43.232Z,99875.25
2023-05-07T02:45:12.755Z,99875.38
2023-05-07T02:47:40.218Z,99876.69
2023-05-07T02:50:08.312Z,99886.28
2023-05-07T02:52:36.590Z,99875.28
2023-05-07T02:55:04.406Z,99880.09
2023-05-07T02:57:31.541Z,99876.56
2023-05-07T03:00:00.381Z,99883.41
2023-05-07T03:02:27.990Z,99890.69
2023-05-07T03:04:55.382Z,99882.69
2023-05-07T03:07:22.981Z,99882.75
2023-05-07T03:09:51.420Z,99887.38
2023-05-07T03:12:18.858Z,99888.09
2023-05-07T03:14:46.340Z,99892.16
2023-05-07T03:17:13.494Z,99890.06
2023-05-07T03:19:40.782Z,99895.28
2023-05-07T03:22:09.221Z,99904.38
2023-05-07T03:24:37.659Z,99904.50
2023-05-07T03:27:05.216Z,99915.94
2023-05-07T03:29:40.880Z,99914.47
2023-05-07T03:32:09.317Z,99916.28
2023-05-07T03:34:36.789Z,99918.19
2023-05-07T03:37:09.865Z,99919.69
2023-05-07T03:39:38.310Z,99927.50
2023-05-07T03:42:05.896Z,99922.72
2023-05-07T03:44:33.392Z,99924.25
2023-05-07T03:47:00.841Z,99927.81
2023-05-07T03:49:28.185Z,99936.66
2023-05-07T03:51:55.636Z,99941.16
2023-05-07T03:54:23.071Z,99945.94
2023-05-07T03:56:50.753Z,99953.03
2023-05-07T03:59:20.148Z,99947.91
2023-05-07T04:01:47.590Z,99953.59
2023-05-07T04:04:17.359Z,99956.41
2023-05-07T04:06:45.983Z,99964.47
2023-05-07T04:09:15.257Z,99959.38
2023-05-07T04:11:42.405Z,99962.25
2023-05-07T04:14:09.880Z,99966.44
2023-05-07T04:16:36.915Z,99970.63
2023-05-07T04:19:10.551Z,99975.50
2023-05-07T04:21:37.728Z,99975.59
2023-05-07T04:24:07.138Z,99971.25
2023-05-07T04:26:40.477Z,99987.69
2023-05-07T04:29:08.200Z,99984.53
2023-05-07T04:31:36.680Z,99985.84
2023-05-07T04:34:03.948Z,99991.97
2023-05-07T04:36:32.158Z,99994.75
2023-05-07T04:39:01.741Z,99995.63
2023-05-07T04:41:29.639Z,99996.34
2023-05-07T04:43:56.815Z,99997.44
2023-05-07T04:46:25.878Z,100007.06
2023-05-07T04:48:59.449Z,100006.81
2023-05-07T04:51:27.002Z,100016.69
2023-05-07T04:53:54.262Z,100020.25
2023-05-07T04:56:21.997Z,100027.41
2023-05-07T04:58:50.389Z,100027.81
2023-05-07T05:01:17.700Z,100027.03
2023-05-07T05:03:47.243Z,100032.97
2023-05-07T05:06:14.768Z,100029.53
2023-05-07T05:08:42.099Z,100040.88
2023-05-07T05:11:11.099Z,100042.19
2023-05-07T05:13:38.531Z,100042.28
2023-05-07T05:16:06.146Z,100043.69
2023-05-07T05:18:34.487Z,100048.72
2023-05-07T05:21:02.232Z,100055.22
2023-05-07T05:23:29.373Z,100056.88
2023-05-07T05:26:00.311Z,100060.31
2023-05-07T05:28:28.760Z,100057.47
2023-05-07T05:30:57.268Z,100060.75
2023-05-07T05:33:24.521Z,100060.72
2023-05-07T05:35:53.106Z,100078.66
2023-05-07T05:38:20.333Z,100073.50
2023-05-07T05:40:49.565Z,100078.75
2023-05-07T05:43:17.199Z,100082.13
2023-05-07T05:45:46.666Z,100086.28
2023-05-07T05:48:14.308Z,100083.59
2023-05-07T05:50:41.593Z,100088.19
2023-05-07T05:53:10.183Z,100084.56
2023-05-07T05:55:37.645Z,100093.16
2023-05-07T05:58:05.138Z,100081.31
2023-05-07T06:00:32.346Z,100083.63
2023-05-07T06:02:59.949Z,100086.09
2023-05-07T06:05:29.453Z,100093.19
2023-05-07T06:07:57.834Z,100093.09
2023-05-07T06:10:25.586Z,100098.44
2023-05-07T06:12:54.918Z,100090.19
2023-05-07T06:15:22.409Z,100091.25
2023-05-07T06:17:50.574Z,100097.00
2023-05-07T06:20:18.941Z,100092.84
2023-05-07T06:22:46.321Z,100100.59
2023-05-07T06:25:13.880Z,100097.97
2023-05-07T06:27:41.497Z,100096.78
2023-05-07T06:30:10.392Z,100104.28
2023-05-07T06:32:43.843Z,100103.09
2023-05-07T06:35:12.286Z,100113.91
2023-05-07T06:37:43.965Z,100114.63
2023-05-07T06:40:11.965Z,100126.06
2023-05-07T06:42:40.560Z,100120.00
2023-05-07T06:45:09.678Z,100120.19
2023-05-07T06:47:37.246Z,100126.16
2023-05-07T06:50:04.862Z,100126.88
2023-05-07T06:52:32.178Z,100130.44
2023-05-07T06:54:59.577Z,100137.44
2023-05-07T06:57:27.118Z,100136.59
2023-05-07T06:59:54.644Z,100134.88
2023-05-07T07:02:22.062Z,100144.44
2023-05-07T07:04:49.602Z,100150.44
2023-05-07T07:07:17.337Z,100158.28
2023-05-07T07:09:45.175Z,100157.66
2023-05-07T07:12:12.550Z,100164.34
2023-05-07T07:14:49.023Z,100165.00
2023-05-07T07:17:16.095Z,100164.59
2023-05-07T07:19:44.845Z,100159.72
2023-05-07T07:22:12.529Z,100161.84
2023-05-07T07:24:40.107Z,100165.69
2023-05-07T07:27:07.465Z,100170.06
2023-05-07T07:29:34.744Z,100171.78
2023-05-07T07:32:02.131Z,100167.69
2023-05-07T07:34:29.565Z,100168.25
2023-05-07T07:36:57.543Z,100166.59
2023-05-07T07:39:25.067Z,100174.75
2023-05-07T07:41:52.571Z,100176.28
2023-05-07T07:44:20.035Z,100180.72
2023-05-07T07:46:47.743Z,100186.91
2023-05-07T07:49:16.221Z,100185.13
2023-05-07T07:51:43.943Z,100193.56
2023-05-07T07:54:11.756Z,100197.69
2023-05-07T07:56:39.799Z,100196.13
2023-05-07T07:59:07.376Z,100204.78
2023-05-07T08:01:36.864Z,100209.81
2023-05-07T08:04:11.581Z,100212.56
2023-05-07T08:06:45.613Z,100211.66
2023-05-07T08:09:12.994Z,100211.44
2023-05-07T08:11:41.156Z,100212.97
2023-05-07T08:14:09.538Z,100209.13
2023-05-07T08:16:36.618Z,100209.75
2023-05-07T08:19:04.080Z,100223.94
2023-05-07T08:21:34.437Z,100222.22
2023-05-07T08:24:02.403Z,100218.50
2023-05-07T08:26:37.262Z,100219.19
2023-05-07T08:29:04.430Z,100220.88
2023-05-07T08:31:32.008Z,100220.16
2023-05-07T08:34:00.837Z,100224.31
2023-05-07T08:36:29.951Z,100223.69
2023-05-07T08:38:57.509Z,100228.97
2023-05-07T08:41:24.901Z,100233.28
2023-05-07T08:44:01.478Z,100230.63
2023-05-07T08:46:33.643Z,100239.19
2023-05-07T08:49:03.994Z,100235.31
2023-05-07T08:51:33.657Z,100242.94
2023-05-07T08:54:02.736Z,100241.28
2023-05-07T08:56:30.177Z,100247.38
2023-05-07T08:59:00.139Z,100242.75
2023-05-07T09:01:27.864Z,100240.22
2023-05-07T09:03:56.801Z,100240.72
2023-05-07T09:06:24.210Z,100249.56
2023-05-07T09:08:56.546Z,100245.22
2023-05-07T09:11:25.104Z,100244.41
2023-05-07T09:13:57.530Z,100250.78
2023-05-07T09:16:25.705Z,100250.38
2023-05-07T09:18:56.358Z,100251.31
2023-05-07T09:21:24.334Z,100245.06
2023-05-07T09:23:57.217Z,100248.16
2023-05-07T09:26:25.993Z,100252.38
2023-05-07T09:28:53.625Z,100249.16
2023-05-07T09:31:21.937Z,100248.16
2023-05-07T09:33:50.439Z,100249.69
2023-05-07T09:36:19.446Z,100253.06
2023-05-07T09:38:47.020Z,100263.22
2023-05-07T09:41:14.969Z,100266.41
2023-05-07T09:43:42.388Z,100258.59
2023-05-07T09:46:18.118Z,100263.59
2023-05-07T09:48:45.923Z,100269.13
2023-05-07T09:51:40.084Z,100264.09
2023-05-07T09:54:08.787Z,100267.31
2023-05-07T09:56:39.080Z,100265.75
2023-05-07T09:59:08.350Z,100276.44
2023-05-07T10:01:38.620Z,100267.22
2023-05-07T10:04:08.059Z,100268.09
2023-05-07T10:06:36.989Z,100277.25
2023-05-07T10:09:07.021Z,100275.72
2023-05-07T10:11:36.618Z,100287.41
2023-05-07T10:14:07.068Z,100288.09
2023-05-07T10:16:39.124Z,100293.91
2023-05-07T10:19:13.821Z,100292.81
2023-05-07T10:21:49.673Z,100300.75
2023-05-07T10:24:23.196Z,100298.53
2023-05-07T10:26:53.977Z,100310.47
2023-05-07T10:29:28.136Z,100311.25
2023-05-07T10:32:14.650Z,100309.19
2023-05-07T10:34:46.922Z,100311.88
2023-05-07T10:37:16.145Z,100305.22
2023-05-07T10:39:44.183Z,100308.44
2023-05-07T10:42:13.464Z,100306.47
2023-05-07T10:44:41.828Z,100300.91
2023-05-07T10:47:12.008Z,100299.28
2023-05-07T10:49:48.332Z,100295.56
2023-05-07T10:52:27.431Z,100294.84
2023-05-07T10:55:22.806Z,100294.75
2023-05-07T10:57:51.086Z,100301.06
2023-05-07T11:00:25.274Z,100304.06
2023-05-07T11:03:06.679Z,100298.22
2023-05-07T11:05:37.575Z,100305.06
2023-05-07T11:08:06.891Z,100305.19
2023-05-07T11:10:58.440Z,100302.03
2023-05-07T11:13:48.159Z,100314.44
2023-05-07T11:16:24.492Z,100307.78
2023-05-07T11:18:55.296Z,100314.41
2023-05-07T11:21:43.045Z,100315.47
2023-05-07T11:24:12.118Z,100323.34
2023-05-07T11:26:50.579Z,100323.34
2023-05-07T11:29:23.872Z,100329.78
2023-05-07T11:31:56.159Z,100326.38
2023-05-07T11:34:28.146Z,100330.09
2023-05-07T11:36:57.206Z,100345.28
2023-05-07T11:39:34.226Z,100340.19
2023-05-07T11:42:02.299Z,100341.47
2023-05-07T11:44:47.513Z,100331.44
2023-05-07T11:47:20.049Z,100339.81
2023-05-07T11:49:52.158Z,100349.19
2023-05-07T11:52:21.307Z,100343.09
2023-05-07T11:54:54.022Z,100342.63
2023-05-07T11:57:21.926Z,100361.50
2023-05-07T12:00:01.317Z,100357.16
2023-05-07T12:02:35.791Z,100347.00
2023-05-07T12:05:16.095Z,100356.63
2023-05-07T12:07:43.590Z,100352.78
2023-05-07T12:10:28.359Z,100359.47
2023-05-07T12:13:10.251Z,100359.38
2023-05-07T12:15:52.479Z,100370.63
2023-05-07T12:18:22.354Z,100364.88
2023-05-07T12:20:55.090Z,100367.84
2023-05-07T12:23:30.547Z,100364.00
2023-05-07T12:26:00.865Z,100360.91
2023-05-07T12:28:35.065Z,100365.69
2023-05-07T12:31:04.305Z,100367.91
2023-05-07T12:33:35.805Z,100365.13
2023-05-07T12:36:10.423Z,100366.84
2023-05-07T12:38:45.557Z,100365.81
2023-05-07T12:41:36.170Z,100372.81
2023-05-07T12:44:07.143Z,100376.16
2023-05-07T12:46:41.381Z,100368.66
2023-05-07T12:49:11.155Z,100367.50
2023-05-07T12:51:40.411Z,100369.88
2023-05-07T12:54:34.394Z,100370.22
2023-05-07T12:57:16.022Z,100373.38
2023-05-07T12:59:44.364Z,100375.00
2023-05-07T13:02:15.820Z,100379.28
2023-05-07T13:07:42.479Z,100381.09
2023-05-07T13:10:15.285Z,100381.31
2023-05-07T13:12:43.002Z,100385.84
2023-05-07T13:15:28.888Z,100391.44
2023-05-07T13:17:59.496Z,100394.38
2023-05-07T13:20:29.976Z,100395.38
2023-05-07T13:22:57.823Z,100387.59
2023-05-07T13:25:28.840Z,100386.69
2023-05-07T13:28:06.716Z,100388.06
2023-05-07T13:31:19.535Z,100384.81
2023-05-07T13:33:47.072Z,100389.78
2023-05-07T13:36:14.617Z,100392.75
2023-05-07T13:38:42.018Z,100391.13
2023-05-07T13:41:09.419Z,100394.28
2023-05-07T13:43:36.943Z,100391.63
2023-05-07T13:46:04.404Z,100392.88
2023-05-07T13:48:37.948Z,100395.34
2023-05-07T13:51:05.981Z,100396.06
2023-05-07T13:53:33.376Z,100389.78
2023-05-07T13:56:00.831Z,100392.91
2023-05-07T13:58:28.397Z,100388.59
2023-05-07T14:00:55.842Z,100393.97
2023-05-07T14:03:23.463Z,100401.31
2023-05-07T14:05:51.214Z,100398.47
2023-05-07T14:08:25.050Z,100396.69
2023-05-07T14:10:52.257Z,100408.31
2023-05-07T14:13:19.805Z,100404.72
2023-05-07T14:15:48.135Z,100410.97
2023-05-07T14:18:17.346Z,100402.84
2023-05-07T14:20:52.802Z,100395.44
2023-05-07T14:23:39.901Z,100402.34
2023-05-07T14:26:17.559Z,100399.47
2023-05-07T14:28:49.193Z,100406.41
2023-05-07T14:31:21.150Z,100409.28
2023-05-07T14:33:48.611Z,100405.78
2023-05-07T14:36:16.856Z,100407.38
2023-05-07T14:41:33.069Z,100411.41
2023-05-07T14:44:01.961Z,100416.88
2023-05-07T14:46:29.393Z,100422.56
2023-05-07T14:49:01.616Z,100414.88
2023-05-07T14:51:35.600Z,100419.22
2023-05-07T14:54:06.085Z,100423.81
2023-05-07T14:56:41.652Z,100422.25
2023-05-07T14:59:36.455Z,100426.63
2023-05-07T15:02:07.023Z,100426.63
2023-05-07T15:04:35.541Z,100426.78
2023-05-07T15:07:03.250Z,100419.41
2023-05-07T15:09:37.684Z,100430.66
2023-05-07T15:12:12.903Z,100429.81
2023-05-07T15:14:40.672Z,100432.31
2023-05-07T15:17:08.728Z,100427.00
2023-05-07T15:19:39.768Z,100433.31
2023-05-07T15:22:08.186Z,100430.53
2023-05-07T15:24:42.755Z,100433.25
2023-05-07T15:27:12.229Z,100435.78
2023-05-07T15:29:39.924Z,100433.03
2023-05-07T15:32:08.793Z,100429.38
2023-05-07T15:34:37.398Z,100422.97
2023-05-07T15:37:06.163Z,100441.25
2023-05-07T15:39:34.448Z,100442.03
2023-05-07T15:42:03.737Z,100443.66
2023-05-07T15:44:35.530Z,100448.19
2023-05-07T15:47:03.743Z,100448.91
2023-05-07T15:49:36.284Z,100442.06
2023-05-07T15:52:18.374Z,100447.31
2023-05-07T15:54:46.142Z,100441.16
2023-05-07T15:57:22.045Z,100440.41
2023-05-07T15:59:51.761Z,100446.72
2023-05-07T16:02:32.472Z,100445.06
2023-05-07T16:05:04.336Z,100439.78
2023-05-07T16:07:32.030Z,100430.91
2023-05-07T16:10:04.260Z,100428.31
2023-05-07T16:12:33.924Z,100439.91
2023-05-07T16:15:10.959Z,100432.84
2023-05-07T16:17:38.457Z,100438.41
2023-05-07T16:20:23.437Z,100440.25
2023-05-07T16:22:51.011Z,100445.00
2023-05-07T16:25:20.574Z,100449.03
2023-05-07T16:27:48.982Z,100442.03
2023-05-07T16:30:18.926Z,100451.09
2023-05-07T16:32:49.779Z,100459.22
2023-05-07T16:35:18.560Z,100450.72
2023-05-07T16:37:51.140Z,100454.22
2023-05-07T16:40:20.059Z,100459.47
2023-05-07T16:42:56.201Z,100456.84
2023-05-07T16:45:23.790Z,100462.16
2023-05-07T16:47:51.250Z,100460.34
2023-05-07T16:50:18.916Z,100459.19
2023-05-07T16:52:47.260Z,100463.78
2023-05-07T16:55:17.955Z,100460.34
2023-05-07T16:57:51.341Z,100468.19
2023-05-07T17:00:18.779Z,100463.72
2023-05-07T17:02:47.409Z,100463.06
2023-05-07T17:05:15.274Z,100480.66
2023-05-07T17:07:43.698Z,100479.09
2023-05-07T17:10:11.240Z,100476.84
2023-05-07T17:12:38.675Z,100473.34
2023-05-07T17:15:08.502Z,100485.81
2023-05-07T17:17:35.705Z,100485.97
2023-05-07T17:20:04.052Z,100484.22
2023-05-07T17:22:31.621Z,100486.94
2023-05-07T17:24:59.936Z,100490.44
2023-05-07T17:27:27.510Z,100486.94
2023-05-07T17:29:55.142Z,100489.69
2023-05-07T17:32:22.774Z,100491.66
2023-05-07T17:34:50.305Z,100489.00
2023-05-07T17:37:17.870Z,100496.06
2023-05-07T17:39:50.447Z,100495.28
2023-05-07T17:42:19.190Z,100505.09
2023-05-07T17:44:48.138Z,100501.72
2023-05-07T17:47:16.474Z,100507.22
2023-05-07T17:49:43.921Z,100503.53
2023-05-07T17:54:56.430Z,100503.59
2023-05-07T17:57:28.705Z,100499.41
2023-05-07T17:59:58.368Z,100502.91
2023-05-07T18:02:33.591Z,100504.56
2023-05-07T18:05:01.069Z,100508.97
2023-05-07T18:07:29.427Z,100511.50
2023-05-07T18:09:56.938Z,100511.50
2023-05-07T18:12:26.191Z,100510.59
2023-05-07T18:14:54.877Z,100512.44
2023-05-07T18:17:24.760Z,100508.97
2023-05-07T18:19:55.174Z,100512.44
2023-05-07T18:22:24.212Z,100511.63
2023-05-07T18:24:53.636Z,100520.50
2023-05-07T18:27:21.095Z,100519.66
2023-05-07T18:29:48.366Z,100519.63
2023-05-07T18:32:17.170Z,100526.56
2023-05-07T18:34:45.621Z,100521.66
2023-05-07T18:37:13.785Z,100523.38
2023-05-07T18:39:45.258Z,100521.66
2023-05-07T18:42:24.226Z,100526.28
2023-05-07T18:44:53.962Z,100529.97
2023-05-07T18:47:23.659Z,100539.59
2023-05-07T18:49:57.316Z,100534.34
2023-05-07T18:52:26.519Z,100540.44
2023-05-07T18:55:07.028Z,100544.06
2023-05-07T18:57:39.560Z,100548.41
2023-05-07T19:00:14.733Z,100555.56
2023-05-07T19:02:53.652Z,100560.00
2023-05-07T19:05:29.277Z,100567.88
2023-05-07T19:08:02.447Z,100569.75
2023-05-07T19:10:39.408Z,100573.31
2023-05-07T19:13:16.130Z,100582.81
2023-05-07T19:15:51.184Z,100576.75
2023-05-07T19:18:25.053Z,100583.84
2023-05-07T19:21:02.972Z,100588.38
2023-05-07T19:23:35.350Z,100585.63
2023-05-07T19:26:07.186Z,100594.44
2023-05-07T19:28:36.602Z,100582.19
2023-05-07T19:31:28.178Z,100591.06
2023-05-07T19:34:01.332Z,100591.81
2023-05-07T19:36:31.227Z,100589.47
2023-05-07T19:41:51.311Z,100585.97
2023-05-07T19:44:23.653Z,100592.88
2023-05-07T19:46:55.533Z,100594.69
2023-05-07T19:49:23.470Z,100592.78
2023-05-07T19:51:53.424Z,100591.16
2023-05-07T19:54:32.727Z,100595.50
2023-05-07T19:57:01.844Z,100590.38
2023-05-07T19:59:30.973Z,100597.41
2023-05-07T20:02:00.418Z,100608.75
2023-05-07T20:04:39.838Z,100599.91
2023-05-07T20:07:11.067Z,100615.78
2023-05-07T20:09:38.811Z,100609.75
2023-05-07T20:12:08.322Z,100610.59
2023-05-07T20:14:38.393Z,100620.88
2023-05-07T20:17:05.723Z,100622.78
2023-05-07T20:19:33.447Z,100624.66
2023-05-07T20:22:01.172Z,100622.13
2023-05-07T20:24:28.398Z,100620.25
2023-05-07T20:26:55.955Z,100616.84
2023-05-07T20:29:23.572Z,100617.69
2023-05-07T20:31:52.882Z,100623.00
2023-05-07T20:34:21.360Z,100619.47
2023-05-07T20:36:50.190Z,100620.81
2023-05-07T20:39:19.853Z,100621.63
2023-05-07T20:41:50.362Z,100625.91
2023-05-07T20:44:25.029Z,100625.91
2023-05-07T20:46:54.147Z,100621.63
2023-05-07T20:49:28.425Z,100628.59
2023-05-07T20:52:04.172Z,100630.41
2023-05-07T20:54:41.542Z,100628.56
2023-05-07T20:57:08.962Z,100629.66
2023-05-07T20:59:37.190Z,100628.72
2023-05-07T21:02:04.825Z,100623.53
2023-05-07T21:04:33.100Z,100627.97
2023-05-07T21:07:01.148Z,100634.97
2023-05-07T21:09:29.603Z,100628.84
2023-05-07T21:11:58.295Z,100623.47
2023-05-07T21:14:25.724Z,100630.59
2023-05-07T21:16:53.013Z,100633.25
2023-05-07T21:19:21.656Z,100635.06
2023-05-07T21:21:50.190Z,100627.22
2023-05-07T21:24:18.725Z,100645.09
2023-05-07T21:26:46.089Z,100645.28
2023-05-07T21:29:14.407Z,100644.38
2023-05-07T21:31:41.915Z,100639.94
2023-05-07T21:34:10.245Z,100643.59
2023-05-07T21:36:38.416Z,100648.13
2023-05-07T21:39:08.226Z,100651.75
2023-05-07T21:41:36.720Z,100642.13
2023-05-07T21:44:06.002Z,100646.56
2023-05-07T21:46:34.237Z,100644.09
2023-05-07T21:49:01.847Z,100645.13
2023-05-07T21:51:30.054Z,100645.25
2023-05-07T21:53:58.385Z,100662.84
2023-05-07T21:56:31.692Z,100655.13
2023-05-07T21:58:59.160Z,100653.31
2023-05-07T22:01:26.414Z,100657.91
2023-05-07T22:03:54.572Z,100653.56
2023-05-07T22:06:22.891Z,100650.94
2023-05-07T22:08:51.749Z,100650.06
2023-05-07T22:11:22.090Z,100648.31
2023-05-07T22:13:50.322Z,100646.59
2023-05-07T22:16:17.670Z,100644.91
2023-05-07T22:18:49.815Z,100654.69
2023-05-07T22:21:18.292Z,100650.50
2023-05-07T22:23:54.814Z,100655.66
2023-05-07T22:26:22.581Z,100656.59
2023-05-07T22:28:52.966Z,100654.84
2023-05-07T22:31:20.405Z,100657.50
2023-05-07T22:33:47.525Z,100647.00
2023-05-07T22:36:14.966Z,100650.53
2023-05-07T22:38:42.541Z,100639.16
2023-05-07T22:41:10.200Z,100654.03
2023-05-07T22:43:38.290Z,100647.06
2023-05-07T22:46:11.758Z,100647.09
2023-05-07T22:48:39.108Z,100641.88
2023-05-07T22:51:06.675Z,100639.28
2023-05-07T22:53:35.006Z,100642.81
2023-05-07T22:56:06.497Z,100643.78
2023-05-07T22:58:34.487Z,100640.25
2023-05-07T23:01:02.676Z,100642.91
2023-05-07T23:03:30.053Z,100640.34
2023-05-07T23:06:05.919Z,100644.69
2023-05-07T23:08:33.068Z,100641.25
2023-05-07T23:11:01.662Z,100643.94
2023-05-07T23:13:28.993Z,100653.56
2023-05-07T23:15:56.457Z,100645.69
2023-05-07T23:18:23.924Z,100655.34
2023-05-07T23:20:54.456Z,100651.91
2023-05-07T23:23:23.074Z,100650.19
2023-05-07T23:25:54.260Z,100651.94
2023-05-07T23:28:21.733Z,100658.91
2023-05-07T23:30:49.442Z,100658.03
2023-05-07T23:33:22.758Z,100658.03
2023-05-07T23:35:49.795Z,100654.56
2023-05-07T23:38:17.072Z,100651.09
2023-05-07T23:40:44.579Z,100652.84
2023-05-07T23:43:11.708Z,100654.56
2023-05-07T23:45:39.209Z,100654.56
2023-05-07T23:48:06.873Z,100656.34
2023-05-07T23:50:39.298Z,100656.34
2023-05-07T23:53:06.747Z,100651.13
2023-05-07T23:55:34.256Z,100654.63
2023-05-07T23:58:01.906Z,100659.00
